sensor_id;sensor_type;location;lat;lon;timestamp;temperature;humidity
16827;DHT22;8530;49.540;8.576;2023-02-26T00:01:55;0.20;61.50
16827;DHT22;8530;49.540;8.576;2023-02-26T00:04:26;0.20;61.60
16827;DHT22;8530;49.540;8.576;2023-02-26T00:06:53;0.10;61.60
16827;DHT22;8530;49.540;8.576;2023-02-26T00:09:20;0.10;61.60
16827;DHT22;8530;49.540;8.576;2023-02-26T00:11:48;0.10;61.70
16827;DHT22;8530;49.540;8.576;2023-02-26T00:14:15;0.10;61.80
16827;DHT22;8530;49.540;8.576;2023-02-26T00:16:46;0.00;61.80
16827;DHT22;8530;49.540;8.576;2023-02-26T00:19:16;0.00;61.90
16827;DHT22;8530;49.540;8.576;2023-02-26T00:21:44;0.00;61.90
16827;DHT22;8530;49.540;8.576;2023-02-26T00:24:11;0.00;62.00
16827;DHT22;8530;49.540;8.576;2023-02-26T00:26:38;0.00;62.10
16827;DHT22;8530;49.540;8.576;2023-02-26T00:29:05;0.00;62.20
16827;DHT22;8530;49.540;8.576;2023-02-26T00:31:32;0.00;62.20
16827;DHT22;8530;49.540;8.576;2023-02-26T00:33:59;0.00;62.20
16827;DHT22;8530;49.540;8.576;2023-02-26T00:36:34;0.00;62.20
16827;DHT22;8530;49.540;8.576;2023-02-26T00:39:17;0.00;62.40
16827;DHT22;8530;49.540;8.576;2023-02-26T00:41:48;0.00;62.40
16827;DHT22;8530;49.540;8.576;2023-02-26T00:44:15;0.00;62.40
16827;DHT22;8530;49.540;8.576;2023-02-26T00:46:46;-0.10;62.30
16827;DHT22;8530;49.540;8.576;2023-02-26T00:49:22;-0.10;62.40
16827;DHT22;8530;49.540;8.576;2023-02-26T00:51:54;-0.10;62.50
16827;DHT22;8530;49.540;8.576;2023-02-26T00:54:25;-0.20;62.50
16827;DHT22;8530;49.540;8.576;2023-02-26T00:56:54;-0.20;62.60
16827;DHT22;8530;49.540;8.576;2023-02-26T00:59:22;-0.20;62.60
16827;DHT22;8530;49.540;8.576;2023-02-26T01:01:49;-0.20;62.70
16827;DHT22;8530;49.540;8.576;2023-02-26T01:04:18;-0.20;62.80
16827;DHT22;8530;49.540;8.576;2023-02-26T01:06:48;-0.30;62.80
16827;DHT22;8530;49.540;8.576;2023-02-26T01:09:20;-0.30;62.80
16827;DHT22;8530;49.540;8.576;2023-02-26T01:11:50;-0.30;63.00
16827;DHT22;8530;49.540;8.576;2023-02-26T01:14:18;-0.30;63.10
16827;DHT22;8530;49.540;8.576;2023-02-26T01:16:49;-0.40;63.00
16827;DHT22;8530;49.540;8.576;2023-02-26T01:19:24;-0.30;63.10
16827;DHT22;8530;49.540;8.576;2023-02-26T01:21:59;-0.40;63.00
16827;DHT22;8530;49.540;8.576;2023-02-26T01:24:29;-0.40;63.10
16827;DHT22;8530;49.540;8.576;2023-02-26T01:26:58;-0.40;63.10
16827;DHT22;8530;49.540;8.576;2023-02-26T01:29:25;-0.40;63.30
16827;DHT22;8530;49.540;8.576;2023-02-26T01:31:59;-0.40;63.30
16827;DHT22;8530;49.540;8.576;2023-02-26T01:34:34;-0.40;63.40
16827;DHT22;8530;49.540;8.576;2023-02-26T01:37:12;-0.40;63.40
16827;DHT22;8530;49.540;8.576;2023-02-26T01:39:46;-0.40;63.40
16827;DHT22;8530;49.540;8.576;2023-02-26T01:42:18;-0.40;63.30
16827;DHT22;8530;49.540;8.576;2023-02-26T01:44:55;-0.40;64.00
16827;DHT22;8530;49.540;8.576;2023-02-26T01:47:29;-0.40;63.40
16827;DHT22;8530;49.540;8.576;2023-02-26T01:50:08;-0.40;63.50
16827;DHT22;8530;49.540;8.576;2023-02-26T01:53:14;-0.40;63.50
16827;DHT22;8530;49.540;8.576;2023-02-26T01:55:41;-0.30;63.70
16827;DHT22;8530;49.540;8.576;2023-02-26T01:58:10;-0.30;63.60
16827;DHT22;8530;49.540;8.576;2023-02-26T02:00:37;-0.30;63.70
16827;DHT22;8530;49.540;8.576;2023-02-26T02:03:04;-0.30;63.70
16827;DHT22;8530;49.540;8.576;2023-02-26T02:05:35;-0.20;63.80
16827;DHT22;8530;49.540;8.576;2023-02-26T02:08:05;-0.20;63.90
16827;DHT22;8530;49.540;8.576;2023-02-26T02:10:31;-0.20;64.00
16827;DHT22;8530;49.540;8.576;2023-02-26T02:13:04;-0.10;64.00
16827;DHT22;8530;49.540;8.576;2023-02-26T02:15:41;-0.10;64.00
16827;DHT22;8530;49.540;8.576;2023-02-26T02:18:15;-0.10;64.00
16827;DHT22;8530;49.540;8.576;2023-02-26T02:21:04;-0.10;64.00
16827;DHT22;8530;49.540;8.576;2023-02-26T02:23:38;0.00;64.10
16827;DHT22;8530;49.540;8.576;2023-02-26T02:31:54;0.00;64.10
16827;DHT22;8530;49.540;8.576;2023-02-26T02:34:26;0.00;64.60
16827;DHT22;8530;49.540;8.576;2023-02-26T02:36:59;-0.10;64.60
16827;DHT22;8530;49.540;8.576;2023-02-26T02:39:29;-0.10;64.00
16827;DHT22;8530;49.540;8.576;2023-02-26T02:42:01;-0.10;64.10
16827;DHT22;8530;49.540;8.576;2023-02-26T02:44:31;-0.10;64.10
16827;DHT22;8530;49.540;8.576;2023-02-26T02:47:04;-0.10;64.10
16827;DHT22;8530;49.540;8.576;2023-02-26T02:49:35;-0.20;64.10
16827;DHT22;8530;49.540;8.576;2023-02-26T02:52:07;-0.20;64.10
16827;DHT22;8530;49.540;8.576;2023-02-26T02:54:39;-0.10;64.20
16827;DHT22;8530;49.540;8.576;2023-02-26T02:57:10;-0.20;64.20
16827;DHT22;8530;49.540;8.576;2023-02-26T02:59:42;-0.30;64.10
16827;DHT22;8530;49.540;8.576;2023-02-26T03:02:14;-0.40;64.40
16827;DHT22;8530;49.540;8.576;2023-02-26T03:04:42;-0.40;64.30
16827;DHT22;8530;49.540;8.576;2023-02-26T03:07:10;-0.40;64.30
16827;DHT22;8530;49.540;8.576;2023-02-26T03:09:37;-0.50;64.40
16827;DHT22;8530;49.540;8.576;2023-02-26T03:12:04;-0.50;64.50
16827;DHT22;8530;49.540;8.576;2023-02-26T03:14:31;-0.50;64.60
16827;DHT22;8530;49.540;8.576;2023-02-26T03:17:05;-0.50;64.70
16827;DHT22;8530;49.540;8.576;2023-02-26T03:19:40;-0.60;64.90
16827;DHT22;8530;49.540;8.576;2023-02-26T03:22:14;-0.60;64.90
16827;DHT22;8530;49.540;8.576;2023-02-26T03:24:47;-0.60;65.00
16827;DHT22;8530;49.540;8.576;2023-02-26T03:27:19;-0.60;65.10
16827;DHT22;8530;49.540;8.576;2023-02-26T03:29:52;-0.60;65.20
16827;DHT22;8530;49.540;8.576;2023-02-26T03:32:23;-0.70;65.20
16827;DHT22;8530;49.540;8.576;2023-02-26T03:34:58;-0.70;65.40
16827;DHT22;8530;49.540;8.576;2023-02-26T03:37:29;-0.70;65.50
16827;DHT22;8530;49.540;8.576;2023-02-26T03:39:58;-0.80;65.60
16827;DHT22;8530;49.540;8.576;2023-02-26T03:42:29;-0.80;65.70
16827;DHT22;8530;49.540;8.576;2023-02-26T03:45:00;-0.80;65.80
16827;DHT22;8530;49.540;8.576;2023-02-26T03:47:31;-0.80;65.90
16827;DHT22;8530;49.540;8.576;2023-02-26T03:50:03;-0.80;66.00
16827;DHT22;8530;49.540;8.576;2023-02-26T03:52:33;-0.90;66.00
16827;DHT22;8530;49.540;8.576;2023-02-26T03:55:03;-0.90;66.20
16827;DHT22;8530;49.540;8.576;2023-02-26T03:57:31;-1.00;66.30
16827;DHT22;8530;49.540;8.576;2023-02-26T03:59:57;-1.00;66.50
16827;DHT22;8530;49.540;8.576;2023-02-26T04:02:27;-1.00;66.60
16827;DHT22;8530;49.540;8.576;2023-02-26T04:04:56;-1.00;66.80
16827;DHT22;8530;49.540;8.576;2023-02-26T04:07:25;-1.10;66.90
16827;DHT22;8530;49.540;8.576;2023-02-26T04:09:52;-1.10;67.10
16827;DHT22;8530;49.540;8.576;2023-02-26T04:12:20;-1.10;67.30
16827;DHT22;8530;49.540;8.576;2023-02-26T04:14:47;-1.10;67.50
16827;DHT22;8530;49.540;8.576;2023-02-26T04:17:14;-1.10;67.70
16827;DHT22;8530;49.540;8.576;2023-02-26T04:19:40;-1.10;68.00
16827;DHT22;8530;49.540;8.576;2023-02-26T04:22:07;-1.10;68.10
16827;DHT22;8530;49.540;8.576;2023-02-26T04:24:35;-1.10;68.30
16827;DHT22;8530;49.540;8.576;2023-02-26T04:27:02;-1.10;68.60
16827;DHT22;8530;49.540;8.576;2023-02-26T04:29:29;-1.00;68.90
16827;DHT22;8530;49.540;8.576;2023-02-26T04:31:56;-1.10;68.90
16827;DHT22;8530;49.540;8.576;2023-02-26T04:34:22;-1.00;69.20
16827;DHT22;8530;49.540;8.576;2023-02-26T04:36:49;-1.10;69.30
16827;DHT22;8530;49.540;8.576;2023-02-26T04:39:16;-1.00;69.80
16827;DHT22;8530;49.540;8.576;2023-02-26T04:41:44;-1.00;69.90
16827;DHT22;8530;49.540;8.576;2023-02-26T04:44:10;-1.00;70.00
16827;DHT22;8530;49.540;8.576;2023-02-26T04:46:37;-1.10;70.20
16827;DHT22;8530;49.540;8.576;2023-02-26T04:49:04;-1.10;70.30
16827;DHT22;8530;49.540;8.576;2023-02-26T04:51:31;-1.10;70.60
16827;DHT22;8530;49.540;8.576;2023-02-26T04:53:57;-1.10;70.90
16827;DHT22;8530;49.540;8.576;2023-02-26T04:56:24;-1.20;71.00
16827;DHT22;8530;49.540;8.576;2023-02-26T04:58:52;-1.20;71.20
16827;DHT22;8530;49.540;8.576;2023-02-26T05:01:19;-1.30;71.50
16827;DHT22;8530;49.540;8.576;2023-02-26T05:03:46;-1.30;71.80
16827;DHT22;8530;49.540;8.576;2023-02-26T05:06:12;-1.30;72.10
16827;DHT22;8530;49.540;8.576;2023-02-26T05:08:39;-1.30;72.40
16827;DHT22;8530;49.540;8.576;2023-02-26T05:11:07;-1.30;72.60
16827;DHT22;8530;49.540;8.576;2023-02-26T05:13:34;-1.40;72.90
16827;DHT22;8530;49.540;8.576;2023-02-26T05:16:02;-1.40;73.20
16827;DHT22;8530;49.540;8.576;2023-02-26T05:18:28;-1.30;73.50
16827;DHT22;8530;49.540;8.576;2023-02-26T05:20:55;-1.30;73.70
16827;DHT22;8530;49.540;8.576;2023-02-26T05:23:22;-1.30;73.90
16827;DHT22;8530;49.540;8.576;2023-02-26T05:25:49;-1.20;74.40
16827;DHT22;8530;49.540;8.576;2023-02-26T05:28:16;-1.10;74.60
16827;DHT22;8530;49.540;8.576;2023-02-26T05:30:43;-1.10;74.80
16827;DHT22;8530;49.540;8.576;2023-02-26T05:33:11;-1.00;75.20
16827;DHT22;8530;49.540;8.576;2023-02-26T05:35:37;-1.00;75.30
16827;DHT22;8530;49.540;8.576;2023-02-26T05:38:04;-0.90;75.90
16827;DHT22;8530;49.540;8.576;2023-02-26T05:40:31;-0.90;75.80
16827;DHT22;8530;49.540;8.576;2023-02-26T05:42:57;-0.90;75.90
16827;DHT22;8530;49.540;8.576;2023-02-26T05:45:24;-0.90;76.00
16827;DHT22;8530;49.540;8.576;2023-02-26T05:47:51;-0.90;76.00
16827;DHT22;8530;49.540;8.576;2023-02-26T05:50:19;-0.90;76.40
16827;DHT22;8530;49.540;8.576;2023-02-26T05:52:45;-0.90;76.50
16827;DHT22;8530;49.540;8.576;2023-02-26T05:55:12;-0.90;76.60
16827;DHT22;8530;49.540;8.576;2023-02-26T05:57:39;-0.90;76.90
16827;DHT22;8530;49.540;8.576;2023-02-26T06:00:07;-0.90;77.10
16827;DHT22;8530;49.540;8.576;2023-02-26T06:02:34;-0.90;77.30
16827;DHT22;8530;49.540;8.576;2023-02-26T06:05:01;-1.00;77.40
16827;DHT22;8530;49.540;8.576;2023-02-26T06:07:29;-1.00;77.70
16827;DHT22;8530;49.540;8.576;2023-02-26T06:09:56;-1.00;78.00
16827;DHT22;8530;49.540;8.576;2023-02-26T06:12:22;-1.00;78.00
16827;DHT22;8530;49.540;8.576;2023-02-26T06:14:49;-1.00;78.20
16827;DHT22;8530;49.540;8.576;2023-02-26T06:17:16;-0.90;78.40
16827;DHT22;8530;49.540;8.576;2023-02-26T06:19:43;-1.00;78.70
16827;DHT22;8530;49.540;8.576;2023-02-26T06:22:10;-1.00;78.80
16827;DHT22;8530;49.540;8.576;2023-02-26T06:24:38;-1.00;79.10
16827;DHT22;8530;49.540;8.576;2023-02-26T06:27:05;-1.00;79.30
16827;DHT22;8530;49.540;8.576;2023-02-26T06:29:32;-1.00;79.50
16827;DHT22;8530;49.540;8.576;2023-02-26T06:31:58;-0.90;79.90
16827;DHT22;8530;49.540;8.576;2023-02-26T06:34:25;-0.90;80.10
16827;DHT22;8530;49.540;8.576;2023-02-26T06:36:52;-0.90;80.30
16827;DHT22;8530;49.540;8.576;2023-02-26T06:39:19;-0.90;80.80
16827;DHT22;8530;49.540;8.576;2023-02-26T06:41:47;-0.80;81.40
16827;DHT22;8530;49.540;8.576;2023-02-26T06:44:13;-0.80;81.70
16827;DHT22;8530;49.540;8.576;2023-02-26T06:46:40;-0.70;82.00
16827;DHT22;8530;49.540;8.576;2023-02-26T06:49:07;-0.60;82.20
16827;DHT22;8530;49.540;8.576;2023-02-26T06:51:34;-0.60;82.30
16827;DHT22;8530;49.540;8.576;2023-02-26T06:54:01;-0.50;82.50
16827;DHT22;8530;49.540;8.576;2023-02-26T06:56:27;-0.50;82.60
16827;DHT22;8530;49.540;8.576;2023-02-26T06:58:55;-0.40;82.80
16827;DHT22;8530;49.540;8.576;2023-02-26T07:01:22;-0.30;82.90
16827;DHT22;8530;49.540;8.576;2023-02-26T07:03:49;-0.30;83.00
16827;DHT22;8530;49.540;8.576;2023-02-26T07:06:16;-0.20;83.10
16827;DHT22;8530;49.540;8.576;2023-02-26T07:08:42;-0.20;83.20
16827;DHT22;8530;49.540;8.576;2023-02-26T07:11:09;-0.10;83.30
16827;DHT22;8530;49.540;8.576;2023-02-26T07:13:36;-0.10;83.40
16827;DHT22;8530;49.540;8.576;2023-02-26T07:16:04;0.00;83.60
16827;DHT22;8530;49.540;8.576;2023-02-26T07:18:32;0.10;84.00
16827;DHT22;8530;49.540;8.576;2023-02-26T07:20:59;0.40;84.40
16827;DHT22;8530;49.540;8.576;2023-02-26T07:23:26;0.70;84.80
16827;DHT22;8530;49.540;8.576;2023-02-26T07:25:53;0.90;84.80
16827;DHT22;8530;49.540;8.576;2023-02-26T07:28:20;1.10;84.50
16827;DHT22;8530;49.540;8.576;2023-02-26T07:30:47;1.10;83.80
16827;DHT22;8530;49.540;8.576;2023-02-26T07:33:15;1.20;83.30
16827;DHT22;8530;49.540;8.576;2023-02-26T07:35:42;1.10;82.90
16827;DHT22;8530;49.540;8.576;2023-02-26T07:38:09;1.10;82.90
16827;DHT22;8530;49.540;8.576;2023-02-26T07:40:35;1.10;83.10
16827;DHT22;8530;49.540;8.576;2023-02-26T07:43:02;1.20;83.50
16827;DHT22;8530;49.540;8.576;2023-02-26T07:45:29;1.40;83.60
16827;DHT22;8530;49.540;8.576;2023-02-26T07:47:56;1.60;83.70
16827;DHT22;8530;49.540;8.576;2023-02-26T07:50:24;1.80;83.80
16827;DHT22;8530;49.540;8.576;2023-02-26T07:52:51;2.10;83.50
16827;DHT22;8530;49.540;8.576;2023-02-26T07:55:19;2.20;82.80
16827;DHT22;8530;49.540;8.576;2023-02-26T07:57:46;2.20;82.10
16827;DHT22;8530;49.540;8.576;2023-02-26T08:00:14;2.30;81.40
16827;DHT22;8530;49.540;8.576;2023-02-26T08:02:41;2.30;80.90
16827;DHT22;8530;49.540;8.576;2023-02-26T08:05:08;2.30;79.80
16827;DHT22;8530;49.540;8.576;2023-02-26T08:07:36;2.30;79.60
16827;DHT22;8530;49.540;8.576;2023-02-26T08:10:04;2.30;78.90
16827;DHT22;8530;49.540;8.576;2023-02-26T08:12:31;2.40;79.10
16827;DHT22;8530;49.540;8.576;2023-02-26T08:14:58;2.50;79.10
16827;DHT22;8530;49.540;8.576;2023-02-26T08:17:25;2.80;79.70
16827;DHT22;8530;49.540;8.576;2023-02-26T08:19:51;3.50;84.60
16827;DHT22;8530;49.540;8.576;2023-02-26T08:22:19;3.90;82.70
16827;DHT22;8530;49.540;8.576;2023-02-26T08:24:47;4.50;83.60
16827;DHT22;8530;49.540;8.576;2023-02-26T08:27:13;5.10;84.00
16827;DHT22;8530;49.540;8.576;2023-02-26T08:29:40;6.10;89.00
16827;DHT22;8530;49.540;8.576;2023-02-26T08:32:07;7.10;90.20
16827;DHT22;8530;49.540;8.576;2023-02-26T08:34:34;7.80;89.50
16827;DHT22;8530;49.540;8.576;2023-02-26T08:37:01;8.30;86.70
16827;DHT22;8530;49.540;8.576;2023-02-26T08:39:28;8.70;82.10
16827;DHT22;8530;49.540;8.576;2023-02-26T08:41:58;8.90;80.10
16827;DHT22;8530;49.540;8.576;2023-02-26T08:44:25;9.10;77.30
16827;DHT22;8530;49.540;8.576;2023-02-26T08:46:52;9.00;74.60
16827;DHT22;8530;49.540;8.576;2023-02-26T08:49:18;8.70;71.30
16827;DHT22;8530;49.540;8.576;2023-02-26T08:51:45;8.30;66.40
16827;DHT22;8530;49.540;8.576;2023-02-26T08:54:12;8.10;63.90
16827;DHT22;8530;49.540;8.576;2023-02-26T08:56:38;7.80;62.30
16827;DHT22;8530;49.540;8.576;2023-02-26T08:59:08;7.30;59.60
16827;DHT22;8530;49.540;8.576;2023-02-26T09:01:37;6.80;58.50
16827;DHT22;8530;49.540;8.576;2023-02-26T09:04:04;6.30;57.10
16827;DHT22;8530;49.540;8.576;2023-02-26T09:06:31;6.10;57.10
16827;DHT22;8530;49.540;8.576;2023-02-26T09:08:57;5.90;56.20
16827;DHT22;8530;49.540;8.576;2023-02-26T09:11:24;5.70;55.80
16827;DHT22;8530;49.540;8.576;2023-02-26T09:13:51;5.60;55.50
16827;DHT22;8530;49.540;8.576;2023-02-26T09:16:19;5.50;55.20
16827;DHT22;8530;49.540;8.576;2023-02-26T09:18:45;5.50;55.00
16827;DHT22;8530;49.540;8.576;2023-02-26T09:21:12;5.50;55.10
16827;DHT22;8530;49.540;8.576;2023-02-26T09:23:39;5.70;55.30
16827;DHT22;8530;49.540;8.576;2023-02-26T09:26:05;5.80;54.90
16827;DHT22;8530;49.540;8.576;2023-02-26T09:28:33;5.70;54.10
16827;DHT22;8530;49.540;8.576;2023-02-26T09:31:00;5.70;53.70
16827;DHT22;8530;49.540;8.576;2023-02-26T09:33:28;5.80;53.90
16827;DHT22;8530;49.540;8.576;2023-02-26T09:35:55;6.00;53.80
16827;DHT22;8530;49.540;8.576;2023-02-26T09:38:21;6.00;53.10
16827;DHT22;8530;49.540;8.576;2023-02-26T09:40:51;6.10;52.80
16827;DHT22;8530;49.540;8.576;2023-02-26T09:43:50;6.10;52.50
16827;DHT22;8530;49.540;8.576;2023-02-26T09:46:27;6.00;51.50
16827;DHT22;8530;49.540;8.576;2023-02-26T09:49:04;5.80;50.80
16827;DHT22;8530;49.540;8.576;2023-02-26T09:51:33;5.60;50.60
16827;DHT22;8530;49.540;8.576;2023-02-26T09:54:11;5.50;50.00
16827;DHT22;8530;49.540;8.576;2023-02-26T09:56:39;5.30;50.00
16827;DHT22;8530;49.540;8.576;2023-02-26T09:59:08;5.20;50.00
16827;DHT22;8530;49.540;8.576;2023-02-26T10:01:38;5.30;50.30
16827;DHT22;8530;49.540;8.576;2023-02-26T10:04:17;5.40;50.10
16827;DHT22;8530;49.540;8.576;2023-02-26T10:06:53;5.50;50.10
16827;DHT22;8530;49.540;8.576;2023-02-26T10:09:37;5.70;50.30
16827;DHT22;8530;49.540;8.576;2023-02-26T10:12:11;6.00;50.20
16827;DHT22;8530;49.540;8.576;2023-02-26T10:14:43;6.10;49.70
16827;DHT22;8530;49.540;8.576;2023-02-26T10:17:16;6.10;49.30
16827;DHT22;8530;49.540;8.576;2023-02-26T10:19:49;6.10;49.00
16827;DHT22;8530;49.540;8.576;2023-02-26T10:22:23;6.10;48.90
16827;DHT22;8530;49.540;8.576;2023-02-26T10:24:57;6.00;48.70
16827;DHT22;8530;49.540;8.576;2023-02-26T10:27:35;5.90;48.40
16827;DHT22;8530;49.540;8.576;2023-02-26T10:30:06;5.90;48.40
16827;DHT22;8530;49.540;8.576;2023-02-26T10:32:37;6.00;48.30
16827;DHT22;8530;49.540;8.576;2023-02-26T10:35:11;5.90;48.10
16827;DHT22;8530;49.540;8.576;2023-02-26T10:37:47;6.00;48.10
16827;DHT22;8530;49.540;8.576;2023-02-26T10:40:17;6.00;48.00
16827;DHT22;8530;49.540;8.576;2023-02-26T10:42:47;6.00;47.40
16827;DHT22;8530;49.540;8.576;2023-02-26T10:45:29;5.90;47.00
16827;DHT22;8530;49.540;8.576;2023-02-26T10:48:07;5.90;47.20
16827;DHT22;8530;49.540;8.576;2023-02-26T10:50:47;6.20;47.30
16827;DHT22;8530;49.540;8.576;2023-02-26T10:53:14;6.40;47.10
16827;DHT22;8530;49.540;8.576;2023-02-26T10:55:43;6.60;46.70
16827;DHT22;8530;49.540;8.576;2023-02-26T10:58:13;6.60;46.20
16827;DHT22;8530;49.540;8.576;2023-02-26T11:00:44;6.60;46.20
16827;DHT22;8530;49.540;8.576;2023-02-26T11:03:15;6.50;45.80
16827;DHT22;8530;49.540;8.576;2023-02-26T11:05:45;6.40;45.40
16827;DHT22;8530;49.540;8.576;2023-02-26T11:08:15;6.30;45.20
16827;DHT22;8530;49.540;8.576;2023-02-26T11:10:47;6.30;45.30
16827;DHT22;8530;49.540;8.576;2023-02-26T11:13:14;6.20;45.20
16827;DHT22;8530;49.540;8.576;2023-02-26T11:15:41;6.30;45.20
16827;DHT22;8530;49.540;8.576;2023-02-26T11:18:13;6.30;45.10
16827;DHT22;8530;49.540;8.576;2023-02-26T11:20:44;6.50;44.80
16827;DHT22;8530;49.540;8.576;2023-02-26T11:23:15;6.60;45.00
16827;DHT22;8530;49.540;8.576;2023-02-26T11:25:43;6.60;44.70
16827;DHT22;8530;49.540;8.576;2023-02-26T11:28:20;6.70;44.70
16827;DHT22;8530;49.540;8.576;2023-02-26T11:30:47;7.00;44.10
16827;DHT22;8530;49.540;8.576;2023-02-26T11:33:23;7.20;43.90
16827;DHT22;8530;49.540;8.576;2023-02-26T11:35:51;7.40;43.40
16827;DHT22;8530;49.540;8.576;2023-02-26T11:38:22;7.60;43.20
16827;DHT22;8530;49.540;8.576;2023-02-26T11:40:53;7.80;43.30
16827;DHT22;8530;49.540;8.576;2023-02-26T11:43:22;8.10;43.20
16827;DHT22;8530;49.540;8.576;2023-02-26T11:45:54;8.40;42.80
16827;DHT22;8530;49.540;8.576;2023-02-26T11:48:23;8.60;42.60
16827;DHT22;8530;49.540;8.576;2023-02-26T11:50:55;8.60;41.60
16827;DHT22;8530;49.540;8.576;2023-02-26T11:53:25;8.30;41.10
16827;DHT22;8530;49.540;8.576;2023-02-26T11:55:59;8.00;41.00
16827;DHT22;8530;49.540;8.576;2023-02-26T11:58:29;7.60;40.60
16827;DHT22;8530;49.540;8.576;2023-02-26T12:00:58;7.30;40.60
16827;DHT22;8530;49.540;8.576;2023-02-26T12:03:30;7.20;41.00
16827;DHT22;8530;49.540;8.576;2023-02-26T12:06:00;7.10;41.00
16827;DHT22;8530;49.540;8.576;2023-02-26T12:08:30;7.10;40.80
16827;DHT22;8530;49.540;8.576;2023-02-26T12:11:29;7.10;40.90
16827;DHT22;8530;49.540;8.576;2023-02-26T12:14:07;7.00;40.70
16827;DHT22;8530;49.540;8.576;2023-02-26T12:16:42;6.90;40.80
16827;DHT22;8530;49.540;8.576;2023-02-26T12:19:20;6.80;40.80
16827;DHT22;8530;49.540;8.576;2023-02-26T12:22:15;6.70;40.80
16827;DHT22;8530;49.540;8.576;2023-02-26T12:33:59;6.30;40.30
16827;DHT22;8530;49.540;8.576;2023-02-26T12:36:42;6.10;40.60
16827;DHT22;8530;49.540;8.576;2023-02-26T12:39:28;6.10;41.00
16827;DHT22;8530;49.540;8.576;2023-02-26T12:42:09;6.30;41.40
16827;DHT22;8530;49.540;8.576;2023-02-26T12:44:55;6.70;41.80
16827;DHT22;8530;49.540;8.576;2023-02-26T12:47:36;6.80;41.10
16827;DHT22;8530;49.540;8.576;2023-02-26T12:50:17;6.90;41.20
16827;DHT22;8530;49.540;8.576;2023-02-26T12:53:11;6.90;40.60
16827;DHT22;8530;49.540;8.576;2023-02-26T12:55:54;6.90;40.50
16827;DHT22;8530;49.540;8.576;2023-02-26T12:58:43;7.10;40.50
16827;DHT22;8530;49.540;8.576;2023-02-26T13:01:28;7.50;40.50
16827;DHT22;8530;49.540;8.576;2023-02-26T13:07:31;7.90;39.60
16827;DHT22;8530;49.540;8.576;2023-02-26T13:10:06;7.80;39.40
16827;DHT22;8530;49.540;8.576;2023-02-26T13:12:45;7.60;39.10
16827;DHT22;8530;49.540;8.576;2023-02-26T13:15:44;7.60;39.20
16827;DHT22;8530;49.540;8.576;2023-02-26T13:18:20;7.50;39.30
16827;DHT22;8530;49.540;8.576;2023-02-26T13:20:55;7.50;39.30
16827;DHT22;8530;49.540;8.576;2023-02-26T13:23:29;7.30;38.90
16827;DHT22;8530;49.540;8.576;2023-02-26T13:25:59;7.20;38.90
16827;DHT22;8530;49.540;8.576;2023-02-26T13:28:36;7.10;39.00
16827;DHT22;8530;49.540;8.576;2023-02-26T13:31:07;7.00;39.00
16827;DHT22;8530;49.540;8.576;2023-02-26T13:33:34;7.00;39.00
16827;DHT22;8530;49.540;8.576;2023-02-26T13:36:02;7.00;39.00
16827;DHT22;8530;49.540;8.576;2023-02-26T13:38:37;6.90;38.70
16827;DHT22;8530;49.540;8.576;2023-02-26T13:41:11;6.90;38.80
16827;DHT22;8530;49.540;8.576;2023-02-26T13:47:11;6.90;38.70
16827;DHT22;8530;49.540;8.576;2023-02-26T13:49:52;6.90;38.60
16827;DHT22;8530;49.540;8.576;2023-02-26T13:52:23;6.80;38.10
16827;DHT22;8530;49.540;8.576;2023-02-26T13:54:50;6.70;37.90
16827;DHT22;8530;49.540;8.576;2023-02-26T13:57:33;6.60;37.80
16827;DHT22;8530;49.540;8.576;2023-02-26T14:00:07;6.50;37.50
16827;DHT22;8530;49.540;8.576;2023-02-26T14:02:51;6.60;37.80
16827;DHT22;8530;49.540;8.576;2023-02-26T14:05:31;6.70;37.90
16827;DHT22;8530;49.540;8.576;2023-02-26T14:08:18;6.70;37.60
16827;DHT22;8530;49.540;8.576;2023-02-26T14:10:54;6.70;37.50
16827;DHT22;8530;49.540;8.576;2023-02-26T14:13:22;6.60;37.30
16827;DHT22;8530;49.540;8.576;2023-02-26T14:15:58;6.50;36.90
16827;DHT22;8530;49.540;8.576;2023-02-26T14:18:34;6.30;37.00
16827;DHT22;8530;49.540;8.576;2023-02-26T14:21:32;6.20;37.10
16827;DHT22;8530;49.540;8.576;2023-02-26T14:24:01;6.20;37.20
16827;DHT22;8530;49.540;8.576;2023-02-26T14:26:32;6.30;37.50
16827;DHT22;8530;49.540;8.576;2023-02-26T14:29:11;6.30;37.50
16827;DHT22;8530;49.540;8.576;2023-02-26T14:32:03;6.30;37.60
16827;DHT22;8530;49.540;8.576;2023-02-26T14:34:34;6.30;37.60
16827;DHT22;8530;49.540;8.576;2023-02-26T14:37:04;6.40;37.60
16827;DHT22;8530;49.540;8.576;2023-02-26T14:39:36;6.50;37.50
16827;DHT22;8530;49.540;8.576;2023-02-26T14:42:06;6.60;38.00
16827;DHT22;8530;49.540;8.576;2023-02-26T14:44:37;6.50;37.20
16827;DHT22;8530;49.540;8.576;2023-02-26T14:47:05;6.50;37.00
16827;DHT22;8530;49.540;8.576;2023-02-26T14:49:36;6.30;36.60
16827;DHT22;8530;49.540;8.576;2023-02-26T14:55:26;6.00;36.80
16827;DHT22;8530;49.540;8.576;2023-02-26T14:58:11;6.00;37.00
16827;DHT22;8530;49.540;8.576;2023-02-26T15:00:46;6.00;36.90
16827;DHT22;8530;49.540;8.576;2023-02-26T15:03:36;5.90;36.80
16827;DHT22;8530;49.540;8.576;2023-02-26T15:09:11;5.90;36.60
16827;DHT22;8530;49.540;8.576;2023-02-26T15:12:01;5.70;36.40
16827;DHT22;8530;49.540;8.576;2023-02-26T15:14:54;5.50;36.30
16827;DHT22;8530;49.540;8.576;2023-02-26T15:17:35;5.30;36.40
16827;DHT22;8530;49.540;8.576;2023-02-26T15:20:12;5.10;36.40
16827;DHT22;8530;49.540;8.576;2023-02-26T15:22:54;5.00;36.50
16827;DHT22;8530;49.540;8.576;2023-02-26T15:25:28;4.90;36.70
16827;DHT22;8530;49.540;8.576;2023-02-26T15:27:56;4.80;36.80
16827;DHT22;8530;49.540;8.576;2023-02-26T15:30:23;4.60;36.90
16827;DHT22;8530;49.540;8.576;2023-02-26T15:32:55;4.60;37.10
16827;DHT22;8530;49.540;8.576;2023-02-26T15:35:22;4.60;37.20
16827;DHT22;8530;49.540;8.576;2023-02-26T15:37:53;4.70;37.40
16827;DHT22;8530;49.540;8.576;2023-02-26T15:40:22;4.80;37.60
16827;DHT22;8530;49.540;8.576;2023-02-26T15:42:50;4.80;37.60
16827;DHT22;8530;49.540;8.576;2023-02-26T15:45:21;4.90;37.60
16827;DHT22;8530;49.540;8.576;2023-02-26T15:47:53;4.90;37.60
16827;DHT22;8530;49.540;8.576;2023-02-26T15:50:24;4.90;37.70
16827;DHT22;8530;49.540;8.576;2023-02-26T15:53:01;4.90;37.80
16827;DHT22;8530;49.540;8.576;2023-02-26T15:55:30;4.90;37.80
16827;DHT22;8530;49.540;8.576;2023-02-26T15:57:58;4.80;37.70
16827;DHT22;8530;49.540;8.576;2023-02-26T16:00:26;4.70;37.70
16827;DHT22;8530;49.540;8.576;2023-02-26T16:02:53;4.60;37.70
16827;DHT22;8530;49.540;8.576;2023-02-26T16:05:21;4.50;37.80
16827;DHT22;8530;49.540;8.576;2023-02-26T16:07:48;4.50;37.80
16827;DHT22;8530;49.540;8.576;2023-02-26T16:10:26;4.40;37.70
16827;DHT22;8530;49.540;8.576;2023-02-26T16:12:54;4.30;37.60
16827;DHT22;8530;49.540;8.576;2023-02-26T16:15:27;4.20;37.60
16827;DHT22;8530;49.540;8.576;2023-02-26T16:17:55;4.20;37.70
16827;DHT22;8530;49.540;8.576;2023-02-26T16:20:25;4.10;37.80
16827;DHT22;8530;49.540;8.576;2023-02-26T16:22:55;4.10;37.90
16827;DHT22;8530;49.540;8.576;2023-02-26T16:25:29;4.10;38.10
16827;DHT22;8530;49.540;8.576;2023-02-26T16:27:58;4.10;38.20
16827;DHT22;8530;49.540;8.576;2023-02-26T16:30:30;4.20;38.20
16827;DHT22;8530;49.540;8.576;2023-02-26T16:32:58;4.20;38.20
16827;DHT22;8530;49.540;8.576;2023-02-26T16:35:30;4.20;38.20
16827;DHT22;8530;49.540;8.576;2023-02-26T16:38:02;4.20;38.20
16827;DHT22;8530;49.540;8.576;2023-02-26T16:40:35;4.20;38.20
16827;DHT22;8530;49.540;8.576;2023-02-26T16:43:03;4.30;38.30
16827;DHT22;8530;49.540;8.576;2023-02-26T16:45:49;4.20;38.20
16827;DHT22;8530;49.540;8.576;2023-02-26T16:48:21;4.20;38.40